createdAt,value
2019-03-28T00:00:47.238Z,10.53
2019-03-28T00:01:51.875Z,10.98
2019-03-28T00:02:56.525Z,10.20
2019-03-28T00:04:01.280Z,11.05
2019-03-28T00:05:06.344Z,10.72
2019-03-28T00:06:10.978Z,10.48
2019-03-28T00:07:34.528Z,11.18
2019-03-28T00:08:39.178Z,10.20
2019-03-28T00:09:43.859Z,11.15
2019-03-28T00:10:48.493Z,11.05
2019-03-28T00:11:53.211Z,10.63
2019-03-28T00:12:57.840Z,10.45
2019-03-28T00:14:02.503Z,9.98
2019-03-28T00:15:08.122Z,11.05
2019-03-28T00:16:13.008Z,11.03
2019-03-28T00:17:17.656Z,10.82
2019-03-28T00:18:22.297Z,10.88
2019-03-28T00:19:27.935Z,11.45
2019-03-28T00:20:32.624Z,11.70
2019-03-28T00:21:37.268Z,11.08
2019-03-28T00:23:00.898Z,11.10
2019-03-28T00:24:10.048Z,10.75
2019-03-28T00:25:15.540Z,11.10
2019-03-28T00:26:29.997Z,11.57
2019-03-28T00:27:26.593Z,12.03
2019-03-28T00:28:31.240Z,12.45
2019-03-28T00:29:35.940Z,11.73
2019-03-28T00:30:40.608Z,11.97
2019-03-28T00:31:47.740Z,11.28
2019-03-28T00:32:52.300Z,11.90
2019-03-28T00:33:57.165Z,12.50
2019-03-28T00:35:01.902Z,11.28
2019-03-28T00:36:06.631Z,11.60
2019-03-28T00:37:11.279Z,11.68
2019-03-28T00:38:15.898Z,11.43
2019-03-28T00:39:20.536Z,12.33
2019-03-28T00:40:25.355Z,12.18
2019-03-28T00:41:29.980Z,11.60
2019-03-28T00:42:35.107Z,11.70
2019-03-28T00:43:39.872Z,12.18
2019-03-28T00:44:44.535Z,12.75
2019-03-28T00:45:49.298Z,12.45
2019-03-28T00:46:53.944Z,13.45
2019-03-28T00:47:58.608Z,13.22
2019-03-28T00:49:03.286Z,13.13
2019-03-28T00:50:08.261Z,12.90
2019-03-28T00:51:13.226Z,12.43
2019-03-28T00:52:17.854Z,12.70
2019-03-28T00:53:22.715Z,13.22
2019-03-28T00:54:28.448Z,12.28
2019-03-28T00:55:33.114Z,11.80
2019-03-28T00:56:46.566Z,12.10
2019-03-28T00:57:44.290Z,10.63
2019-03-28T00:58:49.088Z,11.63
2019-03-28T00:59:53.708Z,11.48
2019-03-28T01:00:58.425Z,11.38
2019-03-28T01:02:03.150Z,11.83
2019-03-28T01:03:07.820Z,11.35
2019-03-28T01:04:14.320Z,11.20
2019-03-28T01:05:18.981Z,11.08
2019-03-28T01:06:23.759Z,12.05
2019-03-28T01:07:28.447Z,12.23
2019-03-28T01:08:33.103Z,11.70
2019-03-28T01:09:37.740Z,11.90
2019-03-28T01:10:44.024Z,11.20
2019-03-28T01:11:49.072Z,11.78
2019-03-28T01:12:54.002Z,12.03
2019-03-28T01:13:58.624Z,11.83
2019-03-28T01:15:03.292Z,11.45
2019-03-28T01:16:07.940Z,11.75
2019-03-28T01:17:12.579Z,11.18
2019-03-28T01:18:17.212Z,12.23
2019-03-28T01:19:21.892Z,12.25
2019-03-28T01:20:26.727Z,11.35
2019-03-28T01:21:31.373Z,12.35
2019-03-28T01:22:36.079Z,12.07
2019-03-28T01:23:40.813Z,11.20
2019-03-28T01:24:45.439Z,11.50
2019-03-28T01:25:50.184Z,12.10
2019-03-28T01:26:57.574Z,11.95
2019-03-28T01:28:01.180Z,12.15
2019-03-28T01:29:06.225Z,11.43
2019-03-28T01:30:11.027Z,12.18
2019-03-28T01:31:15.676Z,12.30
2019-03-28T01:32:20.376Z,12.28
2019-03-28T01:33:25.023Z,12.40
2019-03-28T01:35:42.370Z,13.32
2019-03-28T01:36:47.049Z,13.22
2019-03-28T01:37:51.683Z,12.78
2019-03-28T01:38:56.386Z,12.03
2019-03-28T01:40:01.037Z,13.18
2019-03-28T01:41:05.669Z,12.70
2019-03-28T01:42:11.541Z,12.68
2019-03-28T01:43:17.677Z,13.28
2019-03-28T01:44:22.361Z,13.03
2019-03-28T01:45:27.059Z,12.98
2019-03-28T01:46:31.676Z,13.10
2019-03-28T01:47:36.320Z,13.80
2019-03-28T01:48:41.000Z,12.90
2019-03-28T01:49:46.510Z,12.73
2019-03-28T01:50:52.099Z,13.15
2019-03-28T01:51:56.859Z,12.00
2019-03-28T01:53:02.601Z,12.37
2019-03-28T01:54:07.238Z,13.18
2019-03-28T01:55:12.060Z,12.45
2019-03-28T01:56:17.105Z,12.90
2019-03-28T01:57:21.892Z,13.05
2019-03-28T01:58:26.629Z,13.50
2019-03-28T01:59:31.319Z,12.73
2019-03-28T02:00:35.971Z,12.63
2019-03-28T02:01:40.693Z,13.53
2019-03-28T02:02:45.481Z,12.65
2019-03-28T02:03:50.148Z,13.28
2019-03-28T02:04:55.431Z,12.40
2019-03-28T02:06:00.169Z,12.50
2019-03-28T02:07:04.848Z,12.88
2019-03-28T02:08:09.467Z,12.18
2019-03-28T02:09:14.156Z,12.65
2019-03-28T02:10:18.771Z,13.18
2019-03-28T02:11:23.400Z,13.08
2019-03-28T02:12:28.083Z,12.53
2019-03-28T02:13:32.720Z,13.58
2019-03-28T02:14:38.311Z,14.58
2019-03-28T02:15:43.162Z,14.63
2019-03-28T02:16:47.836Z,15.48
2019-03-28T02:17:52.513Z,19.05
2019-03-28T02:18:57.171Z,17.42
2019-03-28T02:20:01.836Z,15.25
2019-03-28T02:21:09.443Z,13.62
2019-03-28T02:22:12.831Z,13.38
2019-03-28T02:23:17.435Z,12.53
2019-03-28T02:24:22.055Z,13.55
2019-03-28T02:25:26.667Z,13.08
2019-03-28T02:26:33.208Z,12.47
2019-03-28T02:27:37.816Z,13.10
2019-03-28T02:28:42.424Z,12.73
2019-03-28T02:29:47.062Z,12.53
2019-03-28T02:30:51.694Z,14.33
2019-03-28T02:31:56.293Z,13.38
2019-03-28T02:33:00.924Z,13.65
2019-03-28T02:34:05.563Z,14.35
2019-03-28T02:35:10.213Z,13.53
2019-03-28T02:36:14.907Z,14.28
2019-03-28T02:37:19.573Z,13.05
2019-03-28T02:38:24.187Z,12.68
2019-03-28T02:39:28.805Z,13.05
2019-03-28T02:40:33.470Z,13.38
2019-03-28T02:41:38.220Z,12.75
2019-03-28T02:42:42.896Z,13.55
2019-03-28T02:43:47.493Z,13.70
2019-03-28T02:44:52.157Z,12.60
2019-03-28T02:45:56.802Z,13.00
2019-03-28T02:47:01.423Z,12.95
2019-03-28T02:48:06.035Z,13.18
2019-03-28T02:49:10.644Z,12.63
2019-03-28T02:50:15.264Z,12.28
2019-03-28T02:51:19.904Z,11.97
2019-03-28T02:52:24.518Z,12.50
2019-03-28T02:53:29.360Z,13.30
2019-03-28T02:54:33.960Z,12.63
2019-03-28T02:55:39.811Z,12.35
2019-03-28T02:56:44.455Z,13.25
2019-03-28T02:57:49.116Z,12.90
2019-03-28T02:58:53.727Z,13.38
2019-03-28T02:59:58.314Z,12.75
2019-03-28T03:01:02.930Z,12.53
2019-03-28T03:02:07.584Z,12.40
2019-03-28T03:03:14.003Z,12.70
2019-03-28T03:04:18.712Z,12.93
2019-03-28T03:05:23.372Z,13.08
2019-03-28T03:06:28.025Z,12.70
2019-03-28T03:07:32.707Z,13.43
2019-03-28T03:08:37.319Z,12.35
2019-03-28T03:09:42.020Z,12.75
2019-03-28T03:10:46.715Z,13.00
2019-03-28T03:11:51.375Z,13.18
2019-03-28T03:12:56.136Z,12.63
2019-03-28T03:14:00.747Z,12.78
2019-03-28T03:15:05.684Z,12.82
2019-03-28T03:16:10.274Z,12.82
2019-03-28T03:17:15.779Z,13.13
2019-03-28T03:18:21.520Z,14.05
2019-03-28T03:19:26.551Z,13.48
2019-03-28T03:20:32.267Z,14.18
2019-03-28T03:21:36.965Z,14.35
2019-03-28T03:22:41.619Z,15.38
2019-03-28T03:23:46.653Z,15.48
2019-03-28T03:24:51.540Z,14.00
2019-03-28T03:25:56.607Z,14.55
2019-03-28T03:27:01.252Z,12.95
2019-03-28T03:28:05.895Z,12.98
2019-03-28T03:29:10.592Z,12.13
2019-03-28T03:30:15.705Z,12.95
2019-03-28T03:31:21.267Z,12.00
2019-03-28T03:32:26.634Z,12.13
2019-03-28T03:33:31.327Z,12.40
2019-03-28T03:34:35.955Z,12.13
2019-03-28T03:35:40.649Z,13.00
2019-03-28T03:36:45.321Z,12.93
2019-03-28T03:37:49.957Z,12.35
2019-03-28T03:38:54.728Z,13.05
2019-03-28T03:40:00.494Z,12.78
2019-03-28T03:41:05.352Z,12.03
2019-03-28T03:42:09.987Z,12.23
2019-03-28T03:43:14.616Z,12.23
2019-03-28T03:44:19.262Z,12.07
2019-03-28T03:45:23.971Z,12.35
2019-03-28T03:46:28.645Z,11.15
2019-03-28T03:47:33.248Z,12.58
2019-03-28T03:48:38.676Z,12.53
2019-03-28T03:49:43.381Z,12.73
2019-03-28T03:50:48.678Z,12.53
2019-03-28T03:51:53.419Z,12.00
2019-03-28T03:52:58.033Z,12.82
2019-03-28T03:54:02.664Z,11.57
2019-03-28T03:55:07.384Z,12.60
2019-03-28T03:56:12.004Z,11.57
2019-03-28T03:57:16.609Z,12.58
2019-03-28T03:58:21.226Z,11.22
2019-03-28T03:59:25.927Z,12.20
2019-03-28T04:00:32.961Z,12.43
2019-03-28T04:01:37.612Z,12.03
2019-03-28T04:02:42.226Z,12.18
2019-03-28T04:03:48.462Z,12.43
2019-03-28T04:04:56.364Z,12.00
2019-03-28T04:05:59.489Z,12.35
2019-03-28T04:07:04.148Z,12.82
2019-03-28T04:08:08.767Z,12.70
2019-03-28T04:09:13.764Z,12.80
2019-03-28T04:10:18.425Z,11.93
2019-03-28T04:11:23.130Z,11.43
2019-03-28T04:12:27.833Z,11.08
2019-03-28T04:13:32.504Z,11.45
2019-03-28T04:14:37.179Z,10.82
2019-03-28T04:15:41.924Z,11.70
2019-03-28T04:16:46.624Z,11.78
2019-03-28T04:17:51.270Z,11.33
2019-03-28T04:18:55.880Z,11.33
2019-03-28T04:20:00.574Z,11.10
2019-03-28T04:21:05.238Z,11.53
2019-03-28T04:22:10.113Z,11.88
2019-03-28T04:23:14.954Z,11.35
2019-03-28T04:24:19.572Z,11.33
2019-03-28T04:25:24.260Z,10.95
2019-03-28T04:26:28.905Z,11.68
2019-03-28T04:27:33.511Z,12.00
2019-03-28T04:28:38.605Z,11.93
2019-03-28T04:29:43.400Z,11.55
2019-03-28T04:30:48.321Z,11.70
2019-03-28T04:31:52.928Z,12.25
2019-03-28T04:32:57.584Z,12.15
2019-03-28T04:34:07.518Z,13.50
2019-03-28T04:35:10.294Z,11.65
2019-03-28T04:36:16.075Z,11.88
2019-03-28T04:37:20.819Z,11.35
2019-03-28T04:38:25.434Z,11.78
2019-03-28T04:39:30.111Z,11.63
2019-03-28T04:40:34.773Z,12.73
2019-03-28T04:41:39.791Z,11.88
2019-03-28T04:42:45.997Z,12.37
2019-03-28T04:43:51.947Z,11.35
2019-03-28T04:44:57.132Z,11.78
2019-03-28T04:46:01.781Z,11.97
2019-03-28T04:47:06.380Z,10.95
2019-03-28T04:48:11.040Z,11.43
2019-03-28T04:49:15.925Z,11.83
2019-03-28T04:50:20.626Z,12.00
2019-03-28T04:51:25.317Z,12.03
2019-03-28T04:52:32.033Z,11.70
2019-03-28T04:53:37.518Z,12.13
2019-03-28T04:54:42.307Z,12.10
2019-03-28T04:55:47.325Z,11.88
2019-03-28T04:56:52.568Z,12.45
2019-03-28T04:57:57.260Z,12.00
2019-03-28T04:59:01.891Z,12.40
2019-03-28T05:00:07.343Z,11.90
2019-03-28T05:01:12.084Z,11.80
2019-03-28T05:02:16.700Z,12.20
2019-03-28T05:03:21.422Z,11.53
2019-03-28T05:04:26.081Z,12.50
2019-03-28T05:05:30.695Z,12.70
2019-03-28T05:06:37.878Z,12.58
2019-03-28T05:07:42.365Z,11.85
2019-03-28T05:08:48.114Z,12.70
2019-03-28T05:09:52.786Z,11.50
2019-03-28T05:10:57.429Z,12.45
2019-03-28T05:12:02.096Z,12.53
2019-03-28T05:13:06.827Z,11.75
2019-03-28T05:14:11.540Z,12.10
2019-03-28T05:15:16.319Z,12.15
2019-03-28T05:16:20.944Z,12.18
2019-03-28T05:17:25.566Z,12.65
2019-03-28T05:18:30.182Z,12.65
2019-03-28T05:19:34.807Z,12.23
2019-03-28T05:20:40.427Z,12.50
2019-03-28T05:21:45.146Z,12.58
2019-03-28T05:22:49.783Z,12.37
2019-03-28T05:23:54.399Z,13.05
2019-03-28T05:24:59.006Z,13.30
2019-03-28T05:26:04.092Z,12.98
2019-03-28T05:27:08.780Z,11.68
2019-03-28T05:28:13.487Z,13.25
2019-03-28T05:29:18.145Z,12.88
2019-03-28T05:30:22.947Z,12.23
2019-03-28T05:31:27.633Z,12.73
2019-03-28T05:32:32.378Z,13.28
2019-03-28T05:33:37.140Z,12.33
2019-03-28T05:34:41.857Z,12.37
2019-03-28T05:35:52.288Z,12.55
2019-03-28T05:36:58.790Z,12.47
2019-03-28T05:38:12.748Z,12.73
2019-03-28T05:39:28.418Z,13.03
2019-03-28T05:40:38.928Z,12.90
2019-03-28T05:41:46.640Z,11.83
2019-03-28T05:42:56.347Z,12.23
2019-03-28T05:44:04.795Z,13.15
2019-03-28T05:45:14.198Z,12.55
2019-03-28T05:46:20.347Z,12.47
2019-03-28T05:47:24.974Z,13.08
2019-03-28T05:48:29.705Z,13.60
2019-03-28T05:49:34.410Z,12.65
2019-03-28T05:50:39.151Z,12.70
2019-03-28T05:51:43.821Z,12.23
2019-03-28T05:52:48.434Z,13.03
2019-03-28T05:53:53.122Z,13.30
2019-03-28T05:54:57.822Z,13.18
2019-03-28T05:56:02.500Z,13.35
2019-03-28T05:57:07.191Z,12.82
2019-03-28T05:58:11.803Z,13.22
2019-03-28T05:59:16.524Z,12.47
2019-03-28T06:00:21.193Z,12.55
2019-03-28T06:01:25.820Z,14.03
2019-03-28T06:02:30.462Z,13.53
2019-03-28T06:03:35.222Z,13.68
2019-03-28T06:04:39.894Z,13.48
2019-03-28T06:05:44.565Z,13.58
2019-03-28T06:06:49.267Z,14.53
2019-03-28T06:07:55.051Z,14.68
2019-03-28T06:08:59.747Z,14.47
2019-03-28T06:10:04.864Z,15.32
2019-03-28T06:11:09.511Z,15.35
2019-03-28T06:12:14.135Z,14.07
2019-03-28T06:13:18.846Z,14.70
2019-03-28T06:14:23.512Z,14.23
2019-03-28T06:15:28.324Z,15.18
2019-03-28T06:16:33.021Z,15.18
2019-03-28T06:17:37.659Z,14.93
2019-03-28T06:18:42.263Z,16.10
2019-03-28T06:19:46.939Z,15.05
2019-03-28T06:20:51.624Z,14.63
2019-03-28T06:21:56.320Z,14.03
2019-03-28T06:23:00.945Z,14.65
2019-03-28T06:24:05.579Z,14.85
2019-03-28T06:25:11.364Z,13.83
2019-03-28T06:26:16.095Z,14.05
2019-03-28T06:27:20.772Z,15.05
2019-03-28T06:28:25.590Z,14.47
2019-03-28T06:29:30.434Z,14.90
2019-03-28T06:30:35.109Z,14.85
2019-03-28T06:31:40.062Z,14.90
2019-03-28T06:32:44.668Z,15.93
2019-03-28T06:33:49.290Z,14.78
2019-03-28T06:34:53.983Z,15.70
2019-03-28T06:36:02.023Z,14.83
2019-03-28T06:37:06.408Z,15.40
2019-03-28T06:38:11.387Z,14.80
2019-03-28T06:39:16.506Z,18.37
2019-03-28T06:40:21.366Z,15.85
2019-03-28T06:41:26.386Z,14.35
2019-03-28T06:42:31.016Z,15.25
2019-03-28T06:43:35.665Z,14.45
2019-03-28T06:44:40.576Z,14.85
2019-03-28T06:45:45.213Z,14.73
2019-03-28T06:46:49.874Z,15.45
2019-03-28T06:47:54.508Z,15.30
2019-03-28T06:48:59.234Z,14.70
2019-03-28T06:50:03.979Z,15.88
2019-03-28T06:51:09.768Z,14.70
2019-03-28T06:52:14.450Z,15.20
2019-03-28T06:53:19.103Z,13.88
2019-03-28T06:54:25.625Z,14.90
2019-03-28T06:55:30.387Z,15.68
2019-03-28T06:56:36.616Z,15.78
2019-03-28T06:57:41.278Z,16.12
2019-03-28T06:58:45.883Z,14.73
2019-03-28T06:59:50.607Z,16.17
2019-03-28T07:00:56.418Z,16.30
2019-03-28T07:02:01.104Z,16.73
2019-03-28T07:03:05.725Z,16.07
2019-03-28T07:04:10.374Z,17.05
2019-03-28T07:05:16.205Z,16.75
2019-03-28T07:06:20.874Z,16.85
2019-03-28T07:07:25.570Z,16.90
2019-03-28T07:08:30.178Z,16.45
2019-03-28T07:09:36.067Z,18.30
2019-03-28T07:10:40.723Z,17.95
2019-03-28T07:11:45.399Z,18.55
2019-03-28T07:12:50.064Z,18.20
2019-03-28T07:13:54.683Z,20.40
2019-03-28T07:14:59.854Z,19.55
2019-03-28T07:16:04.526Z,17.70
2019-03-28T07:17:09.171Z,16.60
2019-03-28T07:18:13.994Z,17.25
2019-03-28T07:19:18.709Z,17.35
2019-03-28T07:20:23.344Z,17.23
2019-03-28T07:21:27.980Z,16.32
2019-03-28T07:22:32.651Z,17.92
2019-03-28T07:23:37.331Z,17.67
2019-03-28T07:24:42.003Z,17.52
2019-03-28T07:25:46.635Z,16.82
2019-03-28T07:26:51.585Z,18.30
2019-03-28T07:27:56.699Z,16.90
2019-03-28T07:29:01.356Z,17.70
2019-03-28T07:30:08.407Z,17.90
2019-03-28T07:31:13.026Z,18.37
2019-03-28T07:32:17.693Z,19.17
2019-03-28T07:33:22.531Z,19.27
2019-03-28T07:34:27.150Z,18.12
2019-03-28T07:35:32.078Z,18.82
2019-03-28T07:36:36.759Z,17.10
2019-03-28T07:37:42.368Z,16.80
2019-03-28T07:38:47.063Z,19.77
2019-03-28T07:39:51.696Z,21.00
2019-03-28T07:40:56.600Z,22.90
2019-03-28T07:42:01.255Z,21.93
2019-03-28T07:43:07.560Z,19.10
2019-03-28T07:44:12.256Z,18.05
2019-03-28T07:45:16.883Z,17.42
2019-03-28T07:46:21.496Z,17.92
2019-03-28T07:47:26.319Z,19.10
2019-03-28T07:48:31.159Z,18.23
2019-03-28T07:49:37.644Z,19.02
2019-03-28T07:50:42.798Z,18.98
2019-03-28T07:51:47.640Z,17.73
2019-03-28T07:52:52.293Z,17.80
2019-03-28T07:53:57.300Z,16.62
2019-03-28T07:55:02.045Z,16.77
2019-03-28T07:56:06.654Z,16.57
2019-03-28T07:57:12.462Z,16.90
2019-03-28T07:58:17.064Z,16.42
2019-03-28T07:59:21.816Z,17.17
2019-03-28T08:00:26.844Z,16.52
2019-03-28T08:01:31.459Z,17.15
2019-03-28T08:02:36.091Z,16.67
2019-03-28T08:03:40.714Z,17.85
2019-03-28T08:04:45.371Z,17.82
2019-03-28T08:05:50.094Z,18.90
2019-03-28T08:06:54.738Z,19.32
2019-03-28T08:08:00.556Z,18.55
2019-03-28T08:09:08.163Z,17.92
2019-03-28T08:10:12.944Z,16.82
2019-03-28T08:11:17.645Z,18.85
2019-03-28T08:12:23.431Z,17.25
2019-03-28T08:13:28.290Z,17.80
2019-03-28T08:14:32.943Z,17.40
2019-03-28T08:15:37.553Z,17.12
2019-03-28T08:16:42.159Z,18.02
2019-03-28T08:17:46.891Z,17.75
2019-03-28T08:18:53.391Z,17.73
2019-03-28T08:19:58.052Z,17.75
2019-03-28T08:21:02.782Z,17.45
2019-03-28T08:22:07.395Z,18.12
2019-03-28T08:23:12.033Z,18.42
2019-03-28T08:24:16.945Z,18.73
2019-03-28T08:25:21.568Z,17.80
2019-03-28T08:26:26.195Z,18.67
2019-03-28T08:27:30.912Z,18.07
2019-03-28T08:28:35.551Z,18.95
2019-03-28T08:29:40.187Z,18.87
2019-03-28T08:30:45.449Z,18.37
2019-03-28T08:31:50.992Z,18.60
2019-03-28T08:32:55.591Z,17.42
2019-03-28T08:34:02.047Z,19.40
2019-03-28T08:35:07.537Z,18.45
2019-03-28T08:36:12.540Z,17.70
2019-03-28T08:37:17.216Z,17.25
2019-03-28T08:38:23.408Z,18.02
2019-03-28T08:39:28.560Z,19.32
2019-03-28T08:40:39.154Z,17.98
2019-03-28T08:41:42.024Z,17.92
2019-03-28T08:42:48.185Z,17.12
2019-03-28T08:43:52.811Z,19.05
2019-03-28T08:44:57.430Z,18.82
2019-03-28T08:46:02.083Z,18.35
2019-03-28T08:47:06.748Z,17.95
2019-03-28T08:48:11.367Z,19.60
2019-03-28T08:49:16.003Z,18.00
2019-03-28T08:50:20.609Z,18.90
2019-03-28T08:51:27.302Z,17.95
2019-03-28T08:52:31.580Z,18.07
2019-03-28T08:53:36.202Z,17.55
2019-03-28T08:54:40.820Z,18.77
2019-03-28T08:55:45.460Z,18.87
2019-03-28T08:56:50.099Z,18.35
2019-03-28T08:57:54.759Z,19.30
2019-03-28T08:58:59.366Z,19.10
2019-03-28T09:00:04.554Z,19.67
2019-03-28T09:01:09.201Z,20.70
2019-03-28T09:02:13.815Z,18.32
2019-03-28T09:03:18.420Z,19.35
2019-03-28T09:04:23.050Z,19.02
2019-03-28T09:05:27.658Z,18.62
2019-03-28T09:06:32.283Z,19.25
2019-03-28T09:07:36.942Z,19.37
2019-03-28T09:08:41.759Z,18.70
2019-03-28T09:09:46.446Z,19.48
2019-03-28T09:10:51.328Z,18.48
2019-03-28T09:11:55.938Z,18.95
2019-03-28T09:13:00.553Z,18.80
2019-03-28T09:14:05.235Z,18.90
2019-03-28T09:15:09.975Z,19.60
2019-03-28T09:16:16.306Z,18.48
2019-03-28T09:17:23.712Z,17.85
2019-03-28T09:18:27.881Z,19.45
2019-03-28T09:19:32.615Z,18.95
2019-03-28T09:20:37.249Z,19.85
2019-03-28T09:21:42.184Z,19.57
2019-03-28T09:22:47.446Z,19.57
2019-03-28T09:23:52.088Z,19.12
2019-03-28T09:25:00.358Z,18.90
2019-03-28T09:26:05.697Z,16.82
2019-03-28T09:27:10.311Z,19.37
2019-03-28T09:28:14.898Z,19.62
2019-03-28T09:29:19.517Z,19.62
2019-03-28T09:30:49.762Z,19.65
2019-03-28T09:31:54.638Z,18.15
2019-03-28T09:32:59.242Z,20.30
2019-03-28T09:34:03.864Z,19.20
2019-03-28T09:35:08.549Z,19.35
2019-03-28T09:36:13.146Z,19.77
2019-03-28T09:37:19.047Z,19.48
2019-03-28T09:38:23.734Z,19.82
2019-03-28T09:39:28.329Z,19.77
2019-03-28T09:40:34.971Z,19.15
2019-03-28T09:41:39.572Z,19.32
2019-03-28T09:42:44.288Z,19.87
2019-03-28T09:43:55.061Z,19.87
2019-03-28T09:44:56.355Z,20.15
2019-03-28T09:46:02.016Z,21.52
2019-03-28T09:47:07.150Z,19.42
2019-03-28T09:48:12.186Z,20.82
2019-03-28T09:49:16.933Z,21.65
2019-03-28T09:50:21.625Z,20.08
2019-03-28T09:51:26.288Z,20.25
2019-03-28T09:52:32.630Z,19.32
2019-03-28T09:53:37.851Z,20.00
2019-03-28T09:54:42.467Z,20.62
2019-03-28T09:55:47.069Z,20.77
2019-03-28T09:56:51.698Z,20.55
2019-03-28T09:57:56.352Z,19.87
2019-03-28T09:59:00.976Z,21.05
2019-03-28T10:00:06.055Z,20.35
2019-03-28T10:01:10.679Z,20.05
2019-03-28T10:02:15.270Z,20.75
2019-03-28T10:03:19.967Z,19.85
2019-03-28T10:04:24.610Z,21.30
2019-03-28T10:05:29.283Z,23.42
2019-03-28T10:06:33.935Z,20.65
2019-03-28T10:07:38.787Z,19.23
2019-03-28T10:08:43.458Z,20.55
2019-03-28T10:09:49.466Z,19.85
2019-03-28T10:10:54.262Z,19.73
2019-03-28T10:11:58.889Z,20.08
2019-03-28T10:13:03.642Z,21.00
2019-03-28T10:14:08.306Z,21.33
2019-03-28T10:15:12.986Z,21.05
2019-03-28T10:16:17.602Z,21.65
2019-03-28T10:17:22.295Z,22.50
2019-03-28T10:18:29.996Z,22.82
2019-03-28T10:19:33.286Z,22.30
2019-03-28T10:20:37.916Z,21.37
2019-03-28T10:21:42.529Z,22.45
2019-03-28T10:22:47.142Z,22.22
2019-03-28T10:23:51.747Z,22.05
2019-03-28T10:24:56.390Z,21.33
2019-03-28T10:26:01.012Z,20.57
2019-03-28T10:27:05.614Z,18.75
2019-03-28T10:28:10.276Z,18.52
2019-03-28T10:29:14.894Z,18.85
2019-03-28T10:30:26.355Z,18.80
2019-03-28T10:31:31.323Z,17.07
2019-03-28T10:32:35.942Z,18.07
2019-03-28T10:33:40.552Z,17.77
2019-03-28T10:34:45.230Z,17.67
2019-03-28T10:35:49.873Z,18.80
2019-03-28T10:36:54.475Z,19.20
2019-03-28T10:37:59.438Z,18.45
2019-03-28T10:39:05.567Z,18.92
2019-03-28T10:40:10.183Z,18.40
2019-03-28T10:41:14.867Z,18.48
2019-03-28T10:42:20.591Z,19.05
2019-03-28T10:43:26.717Z,18.75
2019-03-28T10:44:31.423Z,17.77
2019-03-28T10:45:36.047Z,18.00
2019-03-28T10:46:40.647Z,16.97
2019-03-28T10:47:45.275Z,17.92
2019-03-28T10:48:50.012Z,18.25
2019-03-28T10:49:54.623Z,17.73
2019-03-28T10:50:59.263Z,18.70
2019-03-28T10:52:04.141Z,18.40
2019-03-28T10:53:08.835Z,19.48
2019-03-28T10:54:19.986Z,19.75
2019-03-28T10:55:19.767Z,19.52
2019-03-28T10:56:25.411Z,18.73
2019-03-28T10:57:31.317Z,17.40
2019-03-28T10:58:36.420Z,18.73
2019-03-28T10:59:41.055Z,18.05
2019-03-28T11:00:45.739Z,18.32
2019-03-28T11:01:51.142Z,18.35
2019-03-28T11:02:56.053Z,18.23
2019-03-28T11:04:00.783Z,17.92
2019-03-28T11:05:05.533Z,18.48
2019-03-28T11:06:10.165Z,19.90
2019-03-28T11:07:14.771Z,18.05
2019-03-28T11:08:19.391Z,18.02
2019-03-28T11:09:24.060Z,18.42
2019-03-28T11:10:30.596Z,17.60
2019-03-28T11:11:35.200Z,17.62
2019-03-28T11:12:39.840Z,17.92
2019-03-28T11:13:44.443Z,16.87
2019-03-28T11:14:49.056Z,17.77
2019-03-28T11:15:53.719Z,19.15
2019-03-28T11:16:58.372Z,18.52
2019-03-28T11:18:02.983Z,18.55
2019-03-28T11:19:07.703Z,18.30
2019-03-28T11:20:12.320Z,17.32
2019-03-28T11:21:16.923Z,18.48
2019-03-28T11:22:21.540Z,19.90
2019-03-28T11:23:26.162Z,18.17
2019-03-28T11:24:31.522Z,17.00
2019-03-28T11:25:36.262Z,18.20
2019-03-28T11:26:40.895Z,16.62
2019-03-28T11:27:45.550Z,15.88
2019-03-28T11:28:50.240Z,15.70
2019-03-28T11:29:54.938Z,15.15
2019-03-28T11:30:59.602Z,15.38
2019-03-28T11:32:05.298Z,16.50
2019-03-28T11:33:10.016Z,14.60
2019-03-28T11:34:15.628Z,16.57
2019-03-28T11:35:20.222Z,16.73
2019-03-28T11:36:25.211Z,17.05
2019-03-28T11:37:30.407Z,16.75
2019-03-28T11:38:35.036Z,17.00
2019-03-28T11:39:39.655Z,16.27
2019-03-28T11:40:44.441Z,18.17
2019-03-28T11:41:49.131Z,15.68
2019-03-28T11:42:53.924Z,16.02
2019-03-28T11:43:58.752Z,16.25
2019-03-28T11:45:03.363Z,16.48
2019-03-28T11:46:07.984Z,16.75
2019-03-28T11:47:12.584Z,16.40
2019-03-28T11:48:17.212Z,16.82
2019-03-28T11:49:21.867Z,17.00
2019-03-28T11:50:26.518Z,15.40
2019-03-28T11:51:31.236Z,13.98
2019-03-28T11:52:35.879Z,15.55
2019-03-28T11:53:40.487Z,15.72
2019-03-28T11:54:45.119Z,15.28
2019-03-28T11:55:49.764Z,14.83
2019-03-28T11:56:54.398Z,14.83
2019-03-28T11:57:59.084Z,14.55
2019-03-28T11:59:04.599Z,13.53
2019-03-28T12:00:11.815Z,13.80
2019-03-28T12:01:16.496Z,15.28
2019-03-28T12:02:21.116Z,12.75
2019-03-28T12:03:25.827Z,11.50
2019-03-28T12:04:30.454Z,10.80
2019-03-28T12:05:35.128Z,11.22
2019-03-28T12:06:39.752Z,12.60
2019-03-28T12:07:44.566Z,12.78
2019-03-28T12:08:49.175Z,13.50
2019-03-28T12:09:54.224Z,12.40
2019-03-28T12:10:58.910Z,12.88
2019-03-28T12:12:03.648Z,14.78
2019-03-28T12:13:08.278Z,14.00
2019-03-28T12:14:12.885Z,13.48
2019-03-28T12:15:17.536Z,14.28
2019-03-28T12:16:22.160Z,14.33
2019-03-28T12:17:26.816Z,13.25
2019-03-28T12:18:31.576Z,14.13
2019-03-28T12:19:36.215Z,14.58
2019-03-28T12:20:40.906Z,15.20
2019-03-28T12:21:45.551Z,15.55
2019-03-28T12:22:50.200Z,13.85
2019-03-28T12:23:54.834Z,15.38
2019-03-28T12:24:59.455Z,14.95
2019-03-28T12:26:04.143Z,15.20
2019-03-28T12:27:09.903Z,14.20
2019-03-28T12:28:14.546Z,14.43
2019-03-28T12:29:19.162Z,17.92
2019-03-28T12:30:23.888Z,8.55
2019-03-28T12:31:28.570Z,16.40
2019-03-28T12:32:33.188Z,19.45
2019-03-28T12:33:38.211Z,20.12
2019-03-28T12:34:42.906Z,19.15
2019-03-28T12:35:47.579Z,17.40
2019-03-28T12:36:52.195Z,15.45
2019-03-28T12:37:56.835Z,14.00
2019-03-28T12:39:01.468Z,14.33
2019-03-28T12:40:07.080Z,13.35
2019-03-28T12:41:11.715Z,13.58
2019-03-28T12:42:18.527Z,11.25
2019-03-28T12:43:23.247Z,13.35
2019-03-28T12:44:27.926Z,13.53
2019-03-28T12:45:32.554Z,11.75
2019-03-28T12:46:37.192Z,11.73
2019-03-28T12:47:43.124Z,11.30
2019-03-28T12:48:48.139Z,11.90
2019-03-28T12:49:52.910Z,11.75
2019-03-28T12:50:59.152Z,12.15
2019-03-28T12:52:04.038Z,10.95
2019-03-28T12:53:08.794Z,11.18
2019-03-28T12:54:13.487Z,11.93
2019-03-28T12:55:19.836Z,11.30
2019-03-28T12:56:26.476Z,10.70
2019-03-28T12:57:31.313Z,10.05
2019-03-28T12:58:35.946Z,12.00
2019-03-28T12:59:40.637Z,11.08
2019-03-28T13:00:45.631Z,11.97
2019-03-28T13:01:50.301Z,11.97
2019-03-28T13:02:54.941Z,11.28
2019-03-28T13:03:59.566Z,12.58
2019-03-28T13:05:04.558Z,12.13
2019-03-28T13:06:09.169Z,12.33
2019-03-28T13:07:13.871Z,12.70
2019-03-28T13:08:18.739Z,12.18
2019-03-28T13:09:23.369Z,12.73
2019-03-28T13:10:28.088Z,13.72
2019-03-28T13:11:32.732Z,14.10
2019-03-28T13:12:37.826Z,13.48
2019-03-28T13:13:42.704Z,12.78
2019-03-28T13:14:47.809Z,14.07
2019-03-28T13:15:52.774Z,12.95
2019-03-28T13:16:57.683Z,14.63
2019-03-28T13:18:03.788Z,12.93
2019-03-28T13:19:08.420Z,12.88
2019-03-28T13:20:13.145Z,13.72
2019-03-28T13:21:17.770Z,13.00
2019-03-28T13:22:22.595Z,13.20
2019-03-28T13:23:27.319Z,14.18
2019-03-28T13:24:33.116Z,12.95
2019-03-28T13:25:37.788Z,12.82
2019-03-28T13:26:42.532Z,15.28
2019-03-28T13:27:47.142Z,17.52
2019-03-28T13:28:51.801Z,15.50
2019-03-28T13:29:56.419Z,21.45
2019-03-28T13:31:02.140Z,16.42
2019-03-28T13:32:06.811Z,14.58
2019-03-28T13:33:11.411Z,9.90
2019-03-28T13:34:16.036Z,11.55
2019-03-28T13:35:20.701Z,15.55
2019-03-28T13:36:25.348Z,15.08
2019-03-28T13:37:30.034Z,14.43
2019-03-28T13:38:34.714Z,15.05
2019-03-28T13:39:39.320Z,14.40
2019-03-28T13:40:43.980Z,14.60
2019-03-28T13:41:48.631Z,20.97
2019-03-28T13:42:56.079Z,20.40
2019-03-28T13:44:00.723Z,15.83
2019-03-28T13:45:06.168Z,13.43
2019-03-28T13:46:10.792Z,15.40
2019-03-28T13:47:15.451Z,15.05
2019-03-28T13:48:40.456Z,16.80
2019-03-28T13:49:45.100Z,15.93
2019-03-28T13:50:49.724Z,14.38
2019-03-28T13:51:54.387Z,13.22
2019-03-28T13:52:59.039Z,13.13
2019-03-28T13:54:03.641Z,13.62
2019-03-28T13:55:08.307Z,13.32
2019-03-28T13:56:12.930Z,12.20
2019-03-28T13:57:17.542Z,12.18
2019-03-28T13:58:22.143Z,13.78
2019-03-28T13:59:27.135Z,12.33